createdAt,value
2017-07-02T00:01:22.953Z,18.60
2017-07-02T00:03:51.804Z,18.60
2017-07-02T00:06:19.811Z,18.60
2017-07-02T00:08:47.825Z,18.60
2017-07-02T00:11:15.842Z,18.60
2017-07-02T00:13:43.866Z,18.60
2017-07-02T00:16:11.883Z,18.60
2017-07-02T00:18:39.910Z,18.60
2017-07-02T00:21:07.924Z,18.60
2017-07-02T00:23:35.951Z,18.60
2017-07-02T00:26:03.966Z,18.60
2017-07-02T00:28:31.989Z,18.60
2017-07-02T00:31:00.003Z,18.60
2017-07-02T00:33:28.031Z,18.60
2017-07-02T00:35:56.050Z,18.60
2017-07-02T00:38:24.078Z,18.60
2017-07-02T00:40:52.106Z,18.60
2017-07-02T00:43:20.135Z,18.60
2017-07-02T00:45:48.237Z,18.60
2017-07-02T00:48:16.262Z,18.60
2017-07-02T00:50:44.294Z,18.60
2017-07-02T00:53:12.313Z,18.60
2017-07-02T00:55:40.343Z,18.60
2017-07-02T00:58:08.361Z,18.60
2017-07-02T01:00:36.390Z,18.60
2017-07-02T01:03:04.519Z,18.60
2017-07-02T01:05:32.583Z,18.60
2017-07-02T01:08:00.606Z,18.50
2017-07-02T01:10:29.435Z,18.50
2017-07-02T01:12:57.474Z,18.50
2017-07-02T01:15:26.270Z,18.50
2017-07-02T01:17:54.670Z,18.50
2017-07-02T01:20:22.739Z,18.50
2017-07-02T01:22:50.815Z,18.50
2017-07-02T01:25:18.877Z,18.50
2017-07-02T01:27:46.956Z,18.40
2017-07-02T01:30:15.034Z,18.50
2017-07-02T01:32:43.098Z,18.50
2017-07-02T01:35:11.166Z,18.50
2017-07-02T01:37:39.234Z,18.50
2017-07-02T01:40:07.310Z,18.50
2017-07-02T01:42:35.785Z,18.50
2017-07-02T01:45:03.858Z,18.40
2017-07-02T01:47:31.927Z,18.50
2017-07-02T01:50:00.003Z,18.50
2017-07-02T01:52:28.074Z,18.50
2017-07-02T01:54:56.962Z,18.50
2017-07-02T01:57:24.994Z,18.50
2017-07-02T01:59:53.818Z,18.40
2017-07-02T02:02:33.730Z,18.40
2017-07-02T02:05:02.739Z,18.40
2017-07-02T02:07:30.833Z,18.40
2017-07-02T02:09:58.908Z,18.50
2017-07-02T02:12:27.482Z,18.50
2017-07-02T02:14:56.527Z,18.50
2017-07-02T02:17:25.330Z,18.50
2017-07-02T02:19:54.971Z,18.50
2017-07-02T02:22:23.041Z,18.50
2017-07-02T02:24:51.114Z,18.50
2017-07-02T02:27:19.182Z,18.50
2017-07-02T02:29:47.256Z,18.60
2017-07-02T02:32:15.281Z,18.60
2017-07-02T02:34:44.065Z,18.60
2017-07-02T02:37:13.002Z,18.60
2017-07-02T02:39:41.070Z,18.50
2017-07-02T02:42:09.602Z,18.60
2017-07-02T02:44:37.630Z,18.60
2017-07-02T02:47:05.687Z,18.60
2017-07-02T02:49:33.766Z,18.60
2017-07-02T02:52:01.830Z,18.60
2017-07-02T02:54:30.420Z,18.60
2017-07-02T02:56:58.487Z,18.60
2017-07-02T02:59:26.555Z,18.50
2017-07-02T03:01:54.583Z,18.50
2017-07-02T03:04:23.378Z,18.60
2017-07-02T03:06:52.199Z,18.60
2017-07-02T03:09:20.263Z,18.60
2017-07-02T03:11:48.283Z,18.60
2017-07-02T03:14:16.317Z,18.60
2017-07-02T03:16:44.378Z,18.60
2017-07-02T03:19:12.987Z,18.60
2017-07-02T03:21:41.015Z,18.60
2017-07-02T03:24:09.103Z,18.60
2017-07-02T03:26:37.174Z,18.60
2017-07-02T03:29:05.199Z,18.60
2017-07-02T03:31:33.995Z,18.60
2017-07-02T03:34:02.818Z,18.60
2017-07-02T03:36:30.843Z,18.50
2017-07-02T03:38:59.674Z,18.60
2017-07-02T03:41:27.746Z,18.50
2017-07-02T03:43:56.094Z,18.60
2017-07-02T03:46:24.891Z,18.60
2017-07-02T03:48:55.303Z,18.60
2017-07-02T03:51:24.104Z,18.50
2017-07-02T03:53:52.195Z,18.50
2017-07-02T03:56:20.263Z,18.50
2017-07-02T03:58:48.335Z,18.50
2017-07-02T04:01:16.367Z,18.40
2017-07-02T04:03:45.195Z,18.40
2017-07-02T04:06:13.258Z,18.40
2017-07-02T04:08:41.279Z,18.40
2017-07-02T04:11:09.402Z,18.40
2017-07-02T04:13:39.010Z,18.40
2017-07-02T04:16:07.082Z,18.40
2017-07-02T04:18:35.145Z,18.40
2017-07-02T04:21:04.242Z,18.40
2017-07-02T04:23:32.266Z,18.30
2017-07-02T04:26:01.102Z,18.30
2017-07-02T04:28:29.994Z,18.30
2017-07-02T04:30:58.066Z,18.40
2017-07-02T04:33:26.427Z,18.40
2017-07-02T04:35:54.450Z,18.40
2017-07-02T04:38:22.995Z,18.40
2017-07-02T04:40:51.062Z,18.40
2017-07-02T04:43:20.023Z,18.40
2017-07-02T04:45:49.666Z,18.40
2017-07-02T04:48:18.147Z,18.40
2017-07-02T04:50:46.978Z,18.40
2017-07-02T04:53:15.102Z,18.50
2017-07-02T04:55:43.126Z,18.50
2017-07-02T04:58:12.710Z,18.40
2017-07-02T05:00:40.846Z,18.40
2017-07-02T05:03:08.882Z,18.40
2017-07-02T05:05:37.674Z,18.50
2017-07-02T05:08:06.595Z,18.50
2017-07-02T05:10:34.669Z,18.50
2017-07-02T05:13:02.711Z,18.50
2017-07-02T05:15:32.036Z,18.50
2017-07-02T05:18:00.234Z,18.40
2017-07-02T05:20:28.259Z,18.50
2017-07-02T05:22:57.682Z,18.50
2017-07-02T05:25:25.757Z,18.50
2017-07-02T05:27:53.814Z,18.50
2017-07-02T05:30:21.890Z,18.50
2017-07-02T05:32:49.966Z,18.50
2017-07-02T05:35:18.955Z,18.50
2017-07-02T05:37:47.786Z,18.50
2017-07-02T05:40:15.914Z,18.50
2017-07-02T05:42:43.986Z,18.40
2017-07-02T05:45:12.258Z,18.50
2017-07-02T05:47:40.331Z,18.50
2017-07-02T05:50:08.402Z,18.40
2017-07-02T05:52:36.471Z,18.40
2017-07-02T05:55:04.547Z,18.40
2017-07-02T05:57:32.606Z,18.40
2017-07-02T06:00:01.039Z,18.40
2017-07-02T06:02:29.063Z,18.50
2017-07-02T06:04:57.130Z,18.50
2017-07-02T06:07:25.203Z,18.40
2017-07-02T06:09:53.265Z,18.40
2017-07-02T06:12:21.342Z,18.50
2017-07-02T06:14:49.366Z,18.50
2017-07-02T06:17:18.978Z,18.50
2017-07-02T06:19:47.807Z,18.50
2017-07-02T06:22:15.871Z,18.50
2017-07-02T06:24:43.946Z,18.50
2017-07-02T06:27:12.643Z,18.50
2017-07-02T06:29:40.670Z,18.50
2017-07-02T06:32:09.590Z,18.50
2017-07-02T06:34:38.142Z,18.50
2017-07-02T06:37:06.958Z,18.50
2017-07-02T06:39:35.026Z,18.40
2017-07-02T06:42:03.914Z,18.50
2017-07-02T06:44:31.986Z,18.50
2017-07-02T06:47:00.062Z,18.40
2017-07-02T06:49:28.131Z,18.50
2017-07-02T06:51:56.204Z,18.50
2017-07-02T06:54:24.224Z,18.60
2017-07-02T06:56:52.347Z,18.60
2017-07-02T06:59:20.370Z,18.60
2017-07-02T07:01:49.202Z,18.60
2017-07-02T07:04:17.274Z,18.60
2017-07-02T07:06:45.354Z,18.60
2017-07-02T07:09:13.417Z,18.60
2017-07-02T07:11:41.479Z,18.70
2017-07-02T07:14:09.498Z,18.70
2017-07-02T07:16:38.044Z,18.80
2017-07-02T07:19:06.064Z,18.70
2017-07-02T07:21:34.895Z,18.80
2017-07-02T07:24:03.818Z,18.80
2017-07-02T07:26:31.957Z,18.80
2017-07-02T07:28:59.970Z,18.90
2017-07-02T07:31:27.994Z,18.90
2017-07-02T07:33:56.063Z,18.90
2017-07-02T07:36:24.745Z,18.90
2017-07-02T07:38:53.017Z,18.90
2017-07-02T07:41:22.014Z,19.00
2017-07-02T07:43:50.090Z,19.00
2017-07-02T07:46:18.154Z,19.00
2017-07-02T07:48:46.198Z,19.10
2017-07-02T07:51:15.011Z,19.00
2017-07-02T07:53:43.188Z,19.00
2017-07-02T07:56:11.774Z,19.10
2017-07-02T07:58:40.628Z,19.20
2017-07-02T08:01:09.474Z,19.10
2017-07-02T08:03:37.622Z,19.20
2017-07-02T08:06:06.523Z,19.20
2017-07-02T08:08:34.575Z,19.20
2017-07-02T08:11:03.963Z,19.20
2017-07-02T08:13:32.149Z,19.20
2017-07-02T08:16:00.767Z,19.20
2017-07-02T08:18:28.910Z,19.20
2017-07-02T08:20:56.984Z,19.30
2017-07-02T08:23:25.051Z,19.30
2017-07-02T08:25:53.146Z,19.30
2017-07-02T08:28:21.200Z,19.30
2017-07-02T08:30:49.259Z,19.30
2017-07-02T08:33:17.724Z,19.30
2017-07-02T08:35:45.915Z,19.30
2017-07-02T08:38:13.987Z,19.40
2017-07-02T08:40:42.002Z,19.40
2017-07-02T08:43:10.943Z,19.40
2017-07-02T08:45:38.962Z,19.40
2017-07-02T08:48:07.089Z,19.40
2017-07-02T08:50:35.150Z,19.40
2017-07-02T08:53:03.226Z,19.40
2017-07-02T08:55:31.295Z,19.40
2017-07-02T08:58:01.922Z,19.40
2017-07-02T09:00:30.005Z,19.40
2017-07-02T09:02:58.847Z,19.50
2017-07-02T09:05:27.638Z,19.50
2017-07-02T09:07:56.458Z,19.50
2017-07-02T09:10:24.526Z,19.50
2017-07-02T09:12:52.542Z,19.50
2017-07-02T09:15:20.570Z,19.50
2017-07-02T09:17:49.563Z,19.40
2017-07-02T09:20:17.598Z,19.40
2017-07-02T09:22:46.414Z,19.50
2017-07-02T09:25:14.678Z,19.50
2017-07-02T09:27:42.976Z,19.50
2017-07-02T09:30:11.945Z,19.50
2017-07-02T09:32:40.031Z,19.40
2017-07-02T09:35:08.103Z,19.40
2017-07-02T09:37:36.122Z,19.40
2017-07-02T09:40:04.146Z,19.50
2017-07-02T09:42:32.206Z,19.50
2017-07-02T09:45:00.283Z,19.50
2017-07-02T09:47:28.354Z,19.50
2017-07-02T09:49:56.368Z,19.50
2017-07-02T09:52:24.781Z,19.50
2017-07-02T09:54:52.804Z,19.40
2017-07-02T09:57:21.735Z,19.40
2017-07-02T09:59:49.766Z,19.40
2017-07-02T10:02:17.794Z,19.40
2017-07-02T10:04:45.806Z,19.40
2017-07-02T10:07:13.856Z,19.40
2017-07-02T10:09:41.867Z,19.40
2017-07-02T10:12:09.894Z,19.40
2017-07-02T10:14:37.936Z,19.30
2017-07-02T10:17:05.954Z,19.30
2017-07-02T10:19:35.750Z,19.30
2017-07-02T10:22:03.779Z,19.40
2017-07-02T10:24:31.795Z,19.40
2017-07-02T10:26:59.818Z,19.40
2017-07-02T10:29:27.840Z,19.50
2017-07-02T10:31:55.881Z,19.40
2017-07-02T10:34:23.902Z,19.50
2017-07-02T10:36:52.790Z,19.50
2017-07-02T10:39:20.806Z,19.50
2017-07-02T10:41:48.830Z,19.50
2017-07-02T10:44:16.843Z,19.50
2017-07-02T10:46:44.878Z,19.50
2017-07-02T10:49:12.895Z,19.50
2017-07-02T10:51:40.922Z,19.50
2017-07-02T10:54:08.946Z,19.50
2017-07-02T10:56:36.958Z,19.50
2017-07-02T10:59:04.986Z,19.50
2017-07-02T11:01:32.998Z,19.60
2017-07-02T11:04:01.020Z,19.60
2017-07-02T11:06:29.030Z,19.60
2017-07-02T11:08:57.061Z,19.60
2017-07-02T11:11:25.071Z,19.60
2017-07-02T11:13:53.114Z,19.60
2017-07-02T11:16:21.122Z,19.60
2017-07-02T11:18:49.146Z,19.50
2017-07-02T11:21:18.054Z,19.50
2017-07-02T11:23:46.083Z,19.50
2017-07-02T11:26:14.102Z,19.50
2017-07-02T11:28:42.123Z,19.50
2017-07-02T11:31:10.143Z,19.50
2017-07-02T11:33:38.178Z,19.60
2017-07-02T11:36:07.082Z,19.60
2017-07-02T11:38:35.110Z,19.60
2017-07-02T11:41:03.120Z,19.60
2017-07-02T11:43:31.159Z,19.60
2017-07-02T11:45:59.178Z,19.60
2017-07-02T11:48:27.186Z,19.60
2017-07-02T11:50:55.206Z,19.60
2017-07-02T11:53:23.318Z,19.60
2017-07-02T11:55:51.343Z,19.60
2017-07-02T11:58:19.466Z,19.60
2017-07-02T12:00:47.543Z,19.60
2017-07-02T12:03:15.602Z,19.60
2017-07-02T12:05:43.675Z,19.60
2017-07-02T12:08:11.842Z,19.60
2017-07-02T12:10:39.832Z,19.60
2017-07-02T12:13:08.726Z,19.70
2017-07-02T12:15:36.747Z,19.70
2017-07-02T12:18:04.763Z,19.70
2017-07-02T12:20:32.788Z,19.70
2017-07-02T12:23:00.799Z,19.70
2017-07-02T12:25:28.895Z,19.70
2017-07-02T12:27:56.906Z,19.70
2017-07-02T12:30:24.955Z,19.70
2017-07-02T12:32:52.963Z,19.70
2017-07-02T12:35:20.987Z,19.70
2017-07-02T12:37:49.040Z,19.80
2017-07-02T12:40:17.040Z,19.80
2017-07-02T12:42:45.058Z,19.80
2017-07-02T12:45:13.167Z,19.80
2017-07-02T12:47:41.182Z,19.80
2017-07-02T12:50:09.195Z,19.80
2017-07-02T12:52:37.223Z,19.80
2017-07-02T12:55:05.234Z,19.70
2017-07-02T12:57:33.259Z,19.70
2017-07-02T13:00:01.274Z,19.70
2017-07-02T13:02:31.003Z,19.70
2017-07-02T13:04:59.022Z,19.70
2017-07-02T13:07:27.052Z,19.60
2017-07-02T13:09:55.066Z,19.70
2017-07-02T13:12:23.095Z,19.70
2017-07-02T13:14:51.111Z,19.70
2017-07-02T13:17:19.144Z,19.60
2017-07-02T13:19:47.162Z,19.60
2017-07-02T13:22:15.182Z,19.60
2017-07-02T13:24:43.635Z,19.60
2017-07-02T13:27:11.659Z,19.50
2017-07-02T13:29:39.675Z,19.50
2017-07-02T13:32:07.694Z,19.50
2017-07-02T13:34:35.717Z,19.50
2017-07-02T13:37:03.740Z,19.50
2017-07-02T13:39:31.754Z,19.60
2017-07-02T13:41:59.789Z,19.60
2017-07-02T13:44:27.807Z,19.50
2017-07-02T13:46:55.819Z,19.50
2017-07-02T13:49:23.848Z,19.50
2017-07-02T13:51:51.864Z,19.40
2017-07-02T13:54:19.890Z,19.40
2017-07-02T13:56:47.906Z,19.50
2017-07-02T13:59:15.943Z,19.40
2017-07-02T14:01:43.959Z,19.40
2017-07-02T14:04:11.995Z,19.40
2017-07-02T14:06:40.011Z,19.40
2017-07-02T14:09:08.036Z,19.40
2017-07-02T14:11:36.058Z,19.40
2017-07-02T14:14:04.100Z,19.40
2017-07-02T14:16:32.126Z,19.50
2017-07-02T14:19:00.162Z,19.50
2017-07-02T14:21:28.174Z,19.50
2017-07-02T14:23:56.207Z,19.50
2017-07-02T14:26:24.218Z,19.50
2017-07-02T14:28:52.238Z,19.50
2017-07-02T14:31:20.254Z,19.50
2017-07-02T14:33:48.700Z,19.50
2017-07-02T14:36:16.715Z,19.50
2017-07-02T14:38:44.742Z,19.50
2017-07-02T14:41:12.760Z,19.40
2017-07-02T14:43:40.785Z,19.40
2017-07-02T14:46:08.802Z,19.40
2017-07-02T14:48:36.820Z,19.40
2017-07-02T14:51:04.845Z,19.40
2017-07-02T14:53:32.873Z,19.40
2017-07-02T14:56:00.894Z,19.40
2017-07-02T14:58:28.913Z,19.40
2017-07-02T15:00:56.934Z,19.40
2017-07-02T15:03:24.959Z,19.50
2017-07-02T15:05:52.982Z,19.50
2017-07-02T15:08:21.011Z,19.50
2017-07-02T15:10:49.036Z,19.50
2017-07-02T15:13:17.280Z,19.50
2017-07-02T15:15:45.303Z,19.50
2017-07-02T15:18:13.393Z,19.50
2017-07-02T15:20:41.419Z,19.50
2017-07-02T15:23:09.427Z,19.50
2017-07-02T15:25:37.450Z,19.50
2017-07-02T15:28:05.467Z,19.50
2017-07-02T15:30:33.490Z,19.50
2017-07-02T15:33:01.507Z,19.50
2017-07-02T15:35:29.529Z,19.50
2017-07-02T15:37:57.548Z,19.50
2017-07-02T15:40:26.030Z,19.50
2017-07-02T15:42:54.047Z,19.40
2017-07-02T15:45:22.066Z,19.40
2017-07-02T15:47:50.092Z,19.40
2017-07-02T15:50:18.107Z,19.40
2017-07-02T15:52:46.130Z,19.40
2017-07-02T15:55:14.146Z,19.40
2017-07-02T15:57:42.170Z,19.40
2017-07-02T16:00:10.998Z,19.40
2017-07-02T16:02:39.018Z,19.40
2017-07-02T16:05:07.051Z,19.40
2017-07-02T16:07:35.074Z,19.40
2017-07-02T16:10:03.086Z,19.40
2017-07-02T16:12:31.915Z,19.40
2017-07-02T16:14:59.943Z,19.40
2017-07-02T16:17:27.954Z,19.40
2017-07-02T16:19:55.971Z,19.40
2017-07-02T16:22:24.906Z,19.40
2017-07-02T16:24:52.919Z,19.40
2017-07-02T16:27:20.982Z,19.40
2017-07-02T16:29:49.514Z,19.40
2017-07-02T16:32:17.534Z,19.40
2017-07-02T16:34:45.550Z,19.50
2017-07-02T16:37:13.575Z,19.50
2017-07-02T16:39:41.591Z,19.50
2017-07-02T16:42:10.506Z,19.50
2017-07-02T16:44:38.519Z,19.50
2017-07-02T16:47:06.534Z,19.50
2017-07-02T16:49:34.554Z,19.50
2017-07-02T16:52:02.567Z,19.50
2017-07-02T16:54:30.592Z,19.40
2017-07-02T16:56:58.602Z,19.40
2017-07-02T16:59:26.627Z,19.40
2017-07-02T17:01:55.542Z,19.50
2017-07-02T17:04:23.571Z,19.40
2017-07-02T17:06:52.479Z,19.50
2017-07-02T17:09:20.507Z,19.40
2017-07-02T17:11:48.522Z,19.40
2017-07-02T17:14:17.123Z,19.40
2017-07-02T17:16:45.141Z,19.40
2017-07-02T17:19:13.162Z,19.40
2017-07-02T17:21:41.182Z,19.40
2017-07-02T17:24:09.210Z,19.40
2017-07-02T17:26:37.220Z,19.40
2017-07-02T17:29:05.242Z,19.40
2017-07-02T17:31:34.170Z,19.40
2017-07-02T17:34:02.186Z,19.40
2017-07-02T17:36:30.203Z,19.40
2017-07-02T17:38:58.244Z,19.40
2017-07-02T17:41:26.263Z,19.40
2017-07-02T17:43:54.275Z,19.40
2017-07-02T17:46:22.310Z,19.40
2017-07-02T17:48:50.327Z,19.40
2017-07-02T17:51:18.351Z,19.40
2017-07-02T17:53:46.362Z,19.40
2017-07-02T17:56:14.823Z,19.40
2017-07-02T17:58:42.843Z,19.40
2017-07-02T18:01:10.866Z,19.40
2017-07-02T18:03:38.889Z,19.40
2017-07-02T18:06:07.810Z,19.40
2017-07-02T18:08:35.823Z,19.40
2017-07-02T18:11:03.847Z,19.40
2017-07-02T18:13:31.859Z,19.30
2017-07-02T18:15:59.879Z,19.30
2017-07-02T18:18:27.903Z,19.30
2017-07-02T18:20:56.383Z,19.30
2017-07-02T18:23:24.395Z,19.30
2017-07-02T18:25:52.423Z,19.30
2017-07-02T18:28:20.441Z,19.30
2017-07-02T18:30:48.463Z,19.30
2017-07-02T18:33:16.474Z,19.30
2017-07-02T18:35:44.504Z,19.30
2017-07-02T18:38:12.515Z,19.30
2017-07-02T18:40:40.575Z,19.30
2017-07-02T18:43:08.554Z,19.40
2017-07-02T18:45:36.579Z,19.40
2017-07-02T18:48:04.600Z,19.40
2017-07-02T18:50:32.610Z,19.30
2017-07-02T18:53:00.635Z,19.30
2017-07-02T18:55:28.654Z,19.30
2017-07-02T18:57:56.674Z,19.30
2017-07-02T19:00:24.687Z,19.30
2017-07-02T19:02:52.776Z,19.30
2017-07-02T19:05:20.805Z,19.30
2017-07-02T19:07:48.830Z,19.30
2017-07-02T19:10:17.003Z,19.30
2017-07-02T19:12:45.003Z,19.20
2017-07-02T19:15:13.039Z,19.20
2017-07-02T19:17:41.075Z,19.20
2017-07-02T19:20:09.083Z,19.20
2017-07-02T19:22:37.114Z,19.20
2017-07-02T19:25:05.142Z,19.20
2017-07-02T19:27:33.166Z,19.20
2017-07-02T19:30:01.186Z,19.20
2017-07-02T19:32:29.211Z,19.20
2017-07-02T19:34:57.222Z,19.10
2017-07-02T19:37:25.262Z,19.10
2017-07-02T19:39:53.290Z,19.00
2017-07-02T19:42:21.810Z,19.10
2017-07-02T19:44:49.834Z,19.00
2017-07-02T19:47:17.848Z,19.00
2017-07-02T19:49:45.870Z,19.00
2017-07-02T19:52:13.889Z,19.00
2017-07-02T19:54:41.931Z,19.00
2017-07-02T19:57:09.942Z,19.00
2017-07-02T19:59:37.966Z,19.00
2017-07-02T20:02:05.986Z,19.00
2017-07-02T20:04:34.014Z,19.00
2017-07-02T20:07:02.858Z,19.00
2017-07-02T20:09:30.886Z,19.00
2017-07-02T20:11:59.799Z,19.00
2017-07-02T20:14:27.826Z,19.00
2017-07-02T20:16:55.839Z,18.90
2017-07-02T20:19:23.859Z,18.90
2017-07-02T20:21:51.870Z,18.90
2017-07-02T20:24:19.895Z,18.90
2017-07-02T20:26:47.916Z,18.90
2017-07-02T20:29:15.931Z,18.80
2017-07-02T20:31:43.947Z,18.80
2017-07-02T20:34:11.979Z,18.80
2017-07-02T20:36:39.996Z,18.80
2017-07-02T20:39:08.014Z,18.80
2017-07-02T20:41:36.867Z,18.80
2017-07-02T20:44:04.879Z,18.80
2017-07-02T20:46:32.899Z,18.80
2017-07-02T20:49:00.910Z,18.80
2017-07-02T20:51:28.938Z,18.80
2017-07-02T20:53:56.955Z,18.70
2017-07-02T20:56:25.515Z,18.70
2017-07-02T20:58:53.479Z,18.70
2017-07-02T21:01:22.249Z,18.70
2017-07-02T21:03:50.246Z,18.70
2017-07-02T21:06:18.271Z,18.70
2017-07-02T21:08:46.284Z,18.70
2017-07-02T21:11:14.303Z,18.70
2017-07-02T21:13:42.323Z,18.60
2017-07-02T21:16:10.347Z,18.60
2017-07-02T21:18:38.367Z,18.60
2017-07-02T21:21:06.390Z,18.60
2017-07-02T21:23:34.407Z,18.60
2017-07-02T21:26:02.431Z,18.60
2017-07-02T21:28:31.238Z,18.50
2017-07-02T21:30:59.263Z,18.50
2017-07-02T21:33:27.276Z,18.50
2017-07-02T21:35:55.310Z,18.40
2017-07-02T21:38:23.327Z,18.40
2017-07-02T21:40:52.055Z,18.50
2017-07-02T21:43:20.079Z,18.40
2017-07-02T21:45:48.099Z,18.40
2017-07-02T21:48:16.122Z,18.40
2017-07-02T21:50:44.135Z,18.30
2017-07-02T21:53:12.625Z,18.40
2017-07-02T21:55:40.806Z,18.40
2017-07-02T21:58:08.839Z,18.30
2017-07-02T22:00:36.874Z,18.30
2017-07-02T22:03:04.899Z,18.30
2017-07-02T22:05:32.919Z,18.30
2017-07-02T22:08:00.935Z,18.30
2017-07-02T22:10:29.524Z,18.30
2017-07-02T22:12:57.550Z,18.30
2017-07-02T22:15:25.570Z,18.30
2017-07-02T22:17:53.600Z,18.30
2017-07-02T22:20:21.730Z,18.30
2017-07-02T22:22:50.282Z,18.30
2017-07-02T22:25:18.301Z,18.20
2017-07-02T22:27:46.326Z,18.20
2017-07-02T22:30:14.334Z,18.20
2017-07-02T22:32:42.354Z,18.20
2017-07-02T22:35:10.390Z,18.20
2017-07-02T22:37:38.406Z,18.20
2017-07-02T22:40:06.427Z,18.10
2017-07-02T22:42:34.444Z,18.10
2017-07-02T22:45:02.462Z,18.10
2017-07-02T22:47:30.478Z,18.10
2017-07-02T22:49:58.499Z,18.10
2017-07-02T22:52:26.511Z,18.10
2017-07-02T22:54:54.598Z,18.10
2017-07-02T22:57:22.770Z,18.10
2017-07-02T22:59:51.046Z,18.10
2017-07-02T23:02:19.066Z,18.10
2017-07-02T23:04:48.102Z,18.10
2017-07-02T23:07:17.098Z,18.10
2017-07-02T23:09:45.782Z,18.00
2017-07-02T23:12:15.628Z,18.00
2017-07-02T23:14:43.767Z,18.00
2017-07-02T23:17:12.045Z,18.00
2017-07-02T23:19:40.114Z,17.90
2017-07-02T23:22:08.136Z,17.90
2017-07-02T23:24:36.256Z,17.90
2017-07-02T23:27:06.066Z,17.90
2017-07-02T23:29:34.132Z,17.90
2017-07-02T23:32:02.202Z,17.90
2017-07-02T23:34:30.247Z,17.90
2017-07-02T23:36:59.030Z,17.90
2017-07-02T23:39:28.667Z,17.90
2017-07-02T23:41:56.739Z,17.80
2017-07-02T23:44:24.811Z,17.80
2017-07-02T23:46:52.878Z,17.80
2017-07-02T23:49:20.950Z,17.80
2017-07-02T23:51:49.023Z,17.90
2017-07-02T23:54:17.094Z,17.80
2017-07-02T23:56:45.158Z,17.80
2017-07-02T23:59:13.543Z,17.70
